createdAt,value
2019-03-31T00:03:57.970Z,7.87
2019-03-31T00:06:46.805Z,8.43
2019-03-31T00:09:35.672Z,7.80
2019-03-31T00:12:24.486Z,7.30
2019-03-31T00:15:13.377Z,11.33
2019-03-31T00:18:02.172Z,9.27
2019-03-31T00:20:51.054Z,10.70
2019-03-31T00:23:39.846Z,10.17
2019-03-31T00:26:28.664Z,14.10
2019-03-31T00:29:17.454Z,7.67
2019-03-31T00:32:06.649Z,8.43
2019-03-31T00:34:55.494Z,7.80
2019-03-31T00:37:44.329Z,9.07
2019-03-31T00:40:33.145Z,8.77
2019-03-31T00:43:21.959Z,6.60
2019-03-31T00:46:10.761Z,8.87
2019-03-31T00:48:52.581Z,9.00
2019-03-31T00:51:41.392Z,8.23
2019-03-31T00:54:30.194Z,15.13
2019-03-31T00:57:19.006Z,8.00
2019-03-31T01:03:04.184Z,9.38
2019-03-31T01:05:52.998Z,9.60
2019-03-31T01:08:41.792Z,7.93
2019-03-31T01:11:30.671Z,8.30
2019-03-31T01:26:57.539Z,9.27
2019-03-31T01:29:46.353Z,8.50
2019-03-31T01:35:44.550Z,8.47
2019-03-31T01:38:33.348Z,7.03
2019-03-31T01:41:22.157Z,7.47
2019-03-31T01:44:10.960Z,10.40
2019-03-31T01:46:59.887Z,9.53
2019-03-31T01:49:41.521Z,14.80
2019-03-31T01:52:30.406Z,10.53
2019-03-31T01:58:27.127Z,8.03
2019-03-31T02:04:25.386Z,14.07
2019-03-31T02:07:14.182Z,8.37
2019-03-31T02:12:58.755Z,6.80
2019-03-31T02:15:47.559Z,10.07
2019-03-31T02:18:36.388Z,10.27
2019-03-31T02:21:25.173Z,9.27
2019-03-31T02:24:13.986Z,8.17
2019-03-31T02:26:55.775Z,10.00
2019-03-31T02:30:03.626Z,11.57
2019-03-31T02:32:52.418Z,9.30
2019-03-31T02:36:01.893Z,11.40
2019-03-31T02:38:50.693Z,8.33
2019-03-31T02:41:39.523Z,8.77
2019-03-31T02:44:28.335Z,14.40
2019-03-31T02:47:17.155Z,10.40
2019-03-31T02:50:26.870Z,9.80
2019-03-31T02:53:36.593Z,9.40
2019-03-31T02:56:46.307Z,12.00
2019-03-31T02:59:56.041Z,9.50
2019-03-31T03:02:44.905Z,8.43
2019-03-31T03:05:54.649Z,11.37
2019-03-31T03:12:14.045Z,8.83
2019-03-31T03:15:23.747Z,11.33
2019-03-31T03:18:12.567Z,9.40
2019-03-31T03:21:01.447Z,11.77
2019-03-31T03:27:04.959Z,12.70
2019-03-31T03:29:53.799Z,8.97
2019-03-31T03:32:35.725Z,9.13
2019-03-31T03:35:24.596Z,10.03
2019-03-31T03:38:13.483Z,11.57
2019-03-31T03:41:02.283Z,11.67
2019-03-31T03:43:55.781Z,8.77
2019-03-31T03:46:41.612Z,12.87
2019-03-31T03:49:23.211Z,10.20
2019-03-31T03:52:12.023Z,10.97
2019-03-31T03:55:00.845Z,10.80
2019-03-31T03:57:49.641Z,12.30
2019-03-31T04:00:38.462Z,9.83
2019-03-31T04:03:46.275Z,9.87
2019-03-31T04:06:35.096Z,11.10
2019-03-31T04:09:23.898Z,11.03
2019-03-31T04:12:12.720Z,10.63
2019-03-31T04:15:01.521Z,10.90
2019-03-31T04:17:50.334Z,14.00
2019-03-31T04:20:39.724Z,15.43
2019-03-31T04:23:29.683Z,12.50
2019-03-31T04:26:18.507Z,11.20
2019-03-31T04:29:07.308Z,12.80
2019-03-31T04:31:56.110Z,12.10
2019-03-31T04:34:44.940Z,12.97
2019-03-31T04:37:33.729Z,12.00
2019-03-31T04:40:22.550Z,10.77
2019-03-31T04:43:11.356Z,12.73
2019-03-31T04:46:00.514Z,13.50
2019-03-31T04:48:49.380Z,13.30
2019-03-31T04:51:30.775Z,15.93
2019-03-31T04:54:19.627Z,14.70
2019-03-31T04:57:27.464Z,11.10
2019-03-31T05:00:35.283Z,10.70
2019-03-31T05:03:24.166Z,11.40
2019-03-31T05:06:12.965Z,10.90
2019-03-31T05:09:01.794Z,11.80
2019-03-31T05:11:50.587Z,12.80
2019-03-31T05:14:39.476Z,12.60
2019-03-31T05:17:28.283Z,10.50
2019-03-31T05:20:17.099Z,13.00
2019-03-31T05:23:05.897Z,11.10
2019-03-31T05:25:54.719Z,10.77
2019-03-31T05:28:44.288Z,11.70
2019-03-31T05:31:27.286Z,10.07
2019-03-31T05:33:56.745Z,10.40
2019-03-31T05:36:45.555Z,9.57
2019-03-31T05:39:34.371Z,10.70
2019-03-31T05:42:23.203Z,10.50
2019-03-31T05:45:31.392Z,11.03
2019-03-31T05:48:20.233Z,14.00
2019-03-31T05:51:09.046Z,12.00
2019-03-31T05:53:57.867Z,14.27
2019-03-31T05:56:46.663Z,14.90
2019-03-31T05:59:35.479Z,11.80
2019-03-31T06:02:24.304Z,11.60
2019-03-31T06:05:13.112Z,13.80
2019-03-31T06:08:01.928Z,12.70
2019-03-31T06:10:50.764Z,14.10
2019-03-31T06:13:39.578Z,10.77
2019-03-31T06:16:28.377Z,14.07
2019-03-31T06:19:17.196Z,14.17
2019-03-31T06:22:05.996Z,12.30
2019-03-31T06:24:54.815Z,13.80
2019-03-31T06:27:43.659Z,12.03
2019-03-31T06:30:32.521Z,11.27
2019-03-31T06:33:14.055Z,13.73
2019-03-31T06:36:02.872Z,10.27
2019-03-31T06:38:51.685Z,10.57
2019-03-31T06:41:40.478Z,8.70
2019-03-31T06:44:29.294Z,14.43
2019-03-31T06:47:18.147Z,10.70
2019-03-31T06:50:26.298Z,10.97
2019-03-31T06:53:15.094Z,12.90
2019-03-31T06:56:03.979Z,12.97
2019-03-31T07:02:03.058Z,13.37
2019-03-31T07:05:00.889Z,15.20
2019-03-31T07:07:41.633Z,15.17
2019-03-31T07:10:30.441Z,16.87
2019-03-31T07:19:28.421Z,20.23
2019-03-31T07:22:17.233Z,16.97
2019-03-31T07:25:27.329Z,20.97
2019-03-31T07:28:16.134Z,23.10
2019-03-31T07:31:04.967Z,27.97
2019-03-31T07:33:47.003Z,28.07
2019-03-31T07:36:35.824Z,29.60
2019-03-31T07:39:24.891Z,26.90
2019-03-31T07:42:15.244Z,26.40
2019-03-31T07:48:33.026Z,29.40
2019-03-31T07:51:14.803Z,34.37
2019-03-31T07:54:03.644Z,34.60
2019-03-31T07:56:53.140Z,34.00
2019-03-31T07:59:43.003Z,36.40
2019-03-31T08:05:39.555Z,32.77
2019-03-31T08:08:28.367Z,32.90
2019-03-31T08:11:17.427Z,31.45
2019-03-31T08:14:07.716Z,35.90
2019-03-31T08:16:56.550Z,34.17
2019-03-31T08:19:45.356Z,38.20
2019-03-31T08:22:53.210Z,36.93
2019-03-31T08:25:42.003Z,38.50
2019-03-31T08:28:30.823Z,35.20
2019-03-31T08:31:19.639Z,34.00
2019-03-31T08:34:01.142Z,33.60
2019-03-31T08:37:09.040Z,33.83
2019-03-31T08:39:57.864Z,39.23
2019-03-31T08:42:46.673Z,41.07
2019-03-31T08:45:35.510Z,42.13
2019-03-31T08:48:24.383Z,45.10
2019-03-31T08:51:13.229Z,40.10
2019-03-31T08:54:02.098Z,41.50
2019-03-31T08:56:50.932Z,45.07
2019-03-31T08:59:39.774Z,45.00
2019-03-31T09:05:28.129Z,47.30
2019-03-31T09:08:16.935Z,46.37
2019-03-31T09:11:06.271Z,50.35
2019-03-31T09:14:14.115Z,47.47
2019-03-31T09:17:02.938Z,45.60
2019-03-31T09:19:51.769Z,43.57
2019-03-31T09:22:40.662Z,48.10
2019-03-31T09:28:23.682Z,47.57
2019-03-31T09:31:12.542Z,44.10
2019-03-31T09:34:01.356Z,47.67
2019-03-31T09:36:50.181Z,49.77
2019-03-31T09:39:39.051Z,49.60
2019-03-31T09:42:27.870Z,48.93
2019-03-31T09:45:16.935Z,49.83
2019-03-31T09:48:05.812Z,48.37
2019-03-31T09:50:56.557Z,52.37
2019-03-31T09:53:45.466Z,52.40
2019-03-31T09:56:34.266Z,49.37
2019-03-31T09:59:23.098Z,42.63
2019-03-31T10:02:11.894Z,45.70
2019-03-31T10:05:00.711Z,44.10
2019-03-31T10:07:49.585Z,42.17
2019-03-31T10:10:38.410Z,40.37
2019-03-31T10:13:27.295Z,47.07
2019-03-31T10:16:35.388Z,44.47
2019-03-31T10:19:43.282Z,45.20
2019-03-31T10:22:32.112Z,41.03
2019-03-31T10:25:20.914Z,48.97
2019-03-31T10:28:09.745Z,45.37
2019-03-31T10:30:58.557Z,40.47
2019-03-31T10:33:47.381Z,43.27
2019-03-31T10:36:28.678Z,48.10
2019-03-31T10:39:17.507Z,45.07
2019-03-31T10:42:06.317Z,38.70
2019-03-31T10:44:55.137Z,42.47
2019-03-31T10:47:43.952Z,43.33
2019-03-31T10:50:32.779Z,38.90
2019-03-31T10:53:21.603Z,37.42
2019-03-31T10:56:29.453Z,39.97
2019-03-31T10:59:18.268Z,37.70
2019-03-31T11:02:07.095Z,36.77
2019-03-31T11:04:55.894Z,35.57
2019-03-31T11:07:44.721Z,34.73
2019-03-31T11:14:01.937Z,33.70
2019-03-31T11:16:50.768Z,39.37
2019-03-31T11:19:39.598Z,33.10
2019-03-31T11:22:47.447Z,36.10
2019-03-31T11:25:36.249Z,34.77
2019-03-31T11:28:32.531Z,36.50
2019-03-31T11:31:21.337Z,36.20
2019-03-31T11:34:10.179Z,38.00
2019-03-31T11:36:52.205Z,36.33
2019-03-31T11:39:41.017Z,38.60
2019-03-31T11:42:29.822Z,32.97
2019-03-31T11:45:18.641Z,36.73
2019-03-31T11:51:15.288Z,31.67
2019-03-31T11:54:04.157Z,31.70
2019-03-31T11:56:52.979Z,29.40
2019-03-31T11:59:41.790Z,30.17
2019-03-31T12:02:30.614Z,26.07
2019-03-31T12:05:19.488Z,24.67
2019-03-31T12:08:08.335Z,27.27
2019-03-31T12:10:57.123Z,29.17
2019-03-31T12:13:45.945Z,26.97
2019-03-31T12:16:34.757Z,29.47
2019-03-31T12:19:23.576Z,28.87
2019-03-31T12:22:31.407Z,27.90
2019-03-31T12:25:20.284Z,27.33
2019-03-31T12:28:09.125Z,27.70
2019-03-31T12:30:57.960Z,22.53
2019-03-31T12:33:46.770Z,22.60
2019-03-31T12:36:28.530Z,15.87
2019-03-31T12:39:17.332Z,21.20
2019-03-31T12:42:06.226Z,23.50
2019-03-31T12:44:55.052Z,17.90
2019-03-31T12:47:43.886Z,20.23
2019-03-31T12:50:32.694Z,23.90
2019-03-31T12:53:21.522Z,18.47
2019-03-31T12:56:29.619Z,18.07
2019-03-31T12:59:18.444Z,19.10
2019-03-31T13:02:07.246Z,15.80
2019-03-31T13:04:56.081Z,16.07
2019-03-31T13:07:55.797Z,16.70
2019-03-31T13:10:35.701Z,15.97
2019-03-31T13:13:24.534Z,18.80
2019-03-31T13:16:13.353Z,16.87
2019-03-31T13:19:21.192Z,19.20
2019-03-31T13:22:10.012Z,15.97
2019-03-31T13:25:02.171Z,17.27
2019-03-31T13:27:49.359Z,17.50
2019-03-31T13:33:47.562Z,17.00
2019-03-31T13:36:29.206Z,15.10
2019-03-31T13:39:18.026Z,16.50
2019-03-31T13:42:06.834Z,17.53
2019-03-31T13:44:55.647Z,18.27
2019-03-31T13:47:44.457Z,16.53
2019-03-31T13:50:33.284Z,17.07
2019-03-31T13:53:22.095Z,16.80
2019-03-31T13:56:11.465Z,16.10
2019-03-31T13:59:01.520Z,17.07
2019-03-31T14:01:50.350Z,16.67
2019-03-31T14:07:46.920Z,15.20
2019-03-31T14:10:35.727Z,18.37
2019-03-31T14:13:24.555Z,16.20
2019-03-31T14:16:13.365Z,17.17
2019-03-31T14:19:02.197Z,18.87
2019-03-31T14:21:51.046Z,16.17
2019-03-31T14:24:39.872Z,18.93
2019-03-31T14:27:28.675Z,17.37
2019-03-31T14:30:17.668Z,16.97
2019-03-31T14:33:06.478Z,15.87
2019-03-31T14:35:55.317Z,16.20
2019-03-31T14:38:40.350Z,17.00
2019-03-31T14:41:27.673Z,14.73
2019-03-31T14:44:16.502Z,16.83
2019-03-31T14:47:05.304Z,18.93
2019-03-31T14:49:54.122Z,18.63
2019-03-31T14:52:42.929Z,13.07
2019-03-31T14:55:31.768Z,16.60
2019-03-31T14:58:20.577Z,17.10
2019-03-31T15:01:09.404Z,18.67
2019-03-31T15:07:26.681Z,13.90
2019-03-31T15:10:15.476Z,14.20
2019-03-31T15:16:19.385Z,15.10
2019-03-31T15:22:15.955Z,11.43
2019-03-31T15:25:25.677Z,12.80
2019-03-31T15:28:14.518Z,20.80
2019-03-31T15:31:03.323Z,14.60
2019-03-31T15:33:52.181Z,17.27
2019-03-31T15:39:42.019Z,13.30
2019-03-31T15:42:30.822Z,15.60
2019-03-31T15:45:19.635Z,13.43
2019-03-31T15:48:08.475Z,11.40
2019-03-31T15:50:57.291Z,11.87
2019-03-31T15:53:46.121Z,13.53
2019-03-31T15:56:34.948Z,11.77
2019-03-31T15:59:23.837Z,13.10
2019-03-31T16:02:12.670Z,11.90
2019-03-31T16:05:01.492Z,8.97
2019-03-31T16:07:50.325Z,10.13
2019-03-31T16:10:39.130Z,10.27
2019-03-31T16:13:27.968Z,9.67
2019-03-31T16:16:16.780Z,10.77
2019-03-31T16:19:05.599Z,11.00
2019-03-31T16:21:54.424Z,12.00
2019-03-31T16:25:02.277Z,10.30
2019-03-31T16:27:51.083Z,11.67
2019-03-31T16:30:39.912Z,6.97
2019-03-31T16:33:28.728Z,7.93
2019-03-31T16:36:17.553Z,7.17
2019-03-31T16:38:58.888Z,7.10
2019-03-31T16:41:47.975Z,6.90
2019-03-31T16:44:36.778Z,9.80
2019-03-31T16:47:25.620Z,9.70
2019-03-31T16:50:34.163Z,8.60
2019-03-31T16:53:22.985Z,8.97
2019-03-31T16:56:11.792Z,8.07
2019-03-31T16:59:00.610Z,8.00
2019-03-31T17:01:49.418Z,10.60
2019-03-31T17:04:38.234Z,7.57
2019-03-31T17:07:27.054Z,6.63
2019-03-31T17:10:35.039Z,8.40
2019-03-31T17:13:23.925Z,13.70
2019-03-31T17:16:15.330Z,7.70
2019-03-31T17:19:03.354Z,9.17
2019-03-31T17:22:11.185Z,7.87
2019-03-31T17:24:59.974Z,7.53
2019-03-31T17:27:48.805Z,8.97
2019-03-31T17:30:37.679Z,5.43
2019-03-31T17:33:26.509Z,8.53
2019-03-31T17:36:15.318Z,6.27
2019-03-31T17:42:19.410Z,6.53
2019-03-31T17:48:23.717Z,10.48
2019-03-31T17:51:12.583Z,8.80
2019-03-31T17:54:01.404Z,7.47
2019-03-31T17:57:09.224Z,11.70
2019-03-31T17:59:58.371Z,9.57
2019-03-31T18:02:47.174Z,11.13
2019-03-31T18:05:35.994Z,7.90
2019-03-31T18:08:24.798Z,6.28
2019-03-31T18:11:13.617Z,8.60
2019-03-31T18:14:02.413Z,8.10
2019-03-31T18:16:51.228Z,7.23
2019-03-31T18:19:40.050Z,8.13
2019-03-31T18:22:28.846Z,7.37
2019-03-31T18:25:17.666Z,7.33
2019-03-31T18:27:59.236Z,6.07
2019-03-31T18:30:48.056Z,7.53
2019-03-31T18:33:36.853Z,7.10
2019-03-31T18:36:36.403Z,6.23
2019-03-31T18:39:16.201Z,8.40
2019-03-31T18:42:05.315Z,9.80
2019-03-31T18:44:54.384Z,8.93
2019-03-31T18:47:43.205Z,5.00
2019-03-31T18:50:32.025Z,4.97
2019-03-31T18:53:39.894Z,7.30
2019-03-31T18:56:47.797Z,5.57
2019-03-31T18:59:55.592Z,3.97
2019-03-31T19:03:03.442Z,4.93
2019-03-31T19:06:11.260Z,6.80
2019-03-31T19:09:19.103Z,6.37
2019-03-31T19:12:26.929Z,5.10
2019-03-31T19:15:34.767Z,7.03
2019-03-31T19:21:51.988Z,7.20
2019-03-31T19:24:59.800Z,6.87
2019-03-31T19:31:02.098Z,7.40
2019-03-31T19:34:09.938Z,6.40
2019-03-31T19:37:17.777Z,6.97
2019-03-31T19:40:46.530Z,5.57
2019-03-31T19:43:54.371Z,8.30
2019-03-31T19:53:27.046Z,5.00
2019-03-31T19:56:34.870Z,6.00
2019-03-31T19:59:42.723Z,6.07
2019-03-31T20:05:59.937Z,5.37
2019-03-31T20:09:07.760Z,6.53
2019-03-31T20:12:15.607Z,6.10
2019-03-31T20:18:38.295Z,6.40
2019-03-31T20:24:48.237Z,6.27
2019-03-31T20:31:05.455Z,6.20
2019-03-31T20:34:13.278Z,6.10
2019-03-31T20:37:21.132Z,5.20
2019-03-31T20:43:25.265Z,5.30
2019-03-31T20:46:14.063Z,5.17
2019-03-31T20:49:02.883Z,10.17
2019-03-31T20:51:51.677Z,9.97
2019-03-31T20:54:40.494Z,6.93
2019-03-31T20:57:29.348Z,5.43
2019-03-31T21:00:18.279Z,5.40
2019-03-31T21:03:07.143Z,4.83
2019-03-31T21:05:56.015Z,7.37
2019-03-31T21:08:44.833Z,8.53
2019-03-31T21:11:33.677Z,6.40
2019-03-31T21:14:15.465Z,13.13
2019-03-31T21:17:04.275Z,9.87
2019-03-31T21:19:53.080Z,9.40
2019-03-31T21:22:41.890Z,5.63
2019-03-31T21:25:30.775Z,7.47
2019-03-31T21:28:19.567Z,4.60
2019-03-31T21:31:08.693Z,8.25
2019-03-31T21:37:24.267Z,5.73
2019-03-31T21:40:13.058Z,5.23
2019-03-31T21:43:01.878Z,3.07
2019-03-31T21:46:09.696Z,9.50
2019-03-31T21:48:58.509Z,5.83
2019-03-31T21:51:47.301Z,6.67
2019-03-31T21:54:36.116Z,5.80
2019-03-31T21:57:24.912Z,5.87
2019-03-31T22:00:13.870Z,9.47
2019-03-31T22:06:12.067Z,5.10
2019-03-31T22:09:00.878Z,5.03
2019-03-31T22:11:49.692Z,4.75
2019-03-31T22:14:31.824Z,4.60
2019-03-31T22:17:20.891Z,8.50
2019-03-31T22:26:12.160Z,7.23
2019-03-31T22:29:00.972Z,6.07
2019-03-31T22:31:49.796Z,4.37
2019-03-31T22:34:38.617Z,5.80
2019-03-31T22:37:27.416Z,6.50
2019-03-31T22:40:16.230Z,4.17
2019-03-31T22:43:07.703Z,6.75
2019-03-31T22:45:55.557Z,7.93
2019-03-31T22:48:44.374Z,6.03
2019-03-31T22:54:40.999Z,6.40
2019-03-31T22:57:29.800Z,8.63
2019-03-31T23:03:17.867Z,3.60
2019-03-31T23:06:06.671Z,4.23
2019-03-31T23:08:55.472Z,4.40
2019-03-31T23:11:44.264Z,3.70
2019-03-31T23:14:33.085Z,17.47
2019-03-31T23:17:21.934Z,5.12
2019-03-31T23:20:10.811Z,5.83
2019-03-31T23:22:59.632Z,5.10
2019-03-31T23:25:48.425Z,6.70
2019-03-31T23:31:32.963Z,3.70
2019-03-31T23:34:21.767Z,9.63
2019-03-31T23:37:10.579Z,5.20
2019-03-31T23:39:59.370Z,6.40
2019-03-31T23:42:48.196Z,4.30
2019-03-31T23:45:37.015Z,5.37
2019-03-31T23:48:25.812Z,5.60
2019-03-31T23:51:14.636Z,5.40
2019-03-31T23:54:03.429Z,5.10
2019-03-31T23:56:52.253Z,6.10
2019-03-31T23:59:41.056Z,7.60
